Terminal Aerodrome Forecast
Issued by NWS

Home | Current Version | Previous Version | Text Only | Print | Product List | Glossary On
Versions: 1 2 3 4 5 6 7 8 9 10 11 12 13 14 15 16 17 18 19 20 21 22 23 24 25 26 27 28
000
FTUS43 KMKX 290329 AAA
TAFENW
TAF AMD
KENW 290329Z 2903/2924 VRB04KT 5SM BR FEW200
     FM290500 VRB03KT 3SM BR FEW080
     FM290800 VRB02KT 1SM BR SCT002 OVC005
     FM291300 VRB03KT 3SM BR SCT005
     FM291500 11005KT P6SM FEW040=

USA.gov is the U.S. government's official web portal to all federal, state and local government web resources and services.